createdAt,value
2023-01-09T00:01:27.503Z,98954.81
2023-01-09T00:04:00.360Z,98949.50
2023-01-09T00:06:33.131Z,98944.19
2023-01-09T00:09:05.919Z,98967.22
2023-01-09T00:11:39.034Z,98952.84
2023-01-09T00:14:13.207Z,98959.19
2023-01-09T00:16:46.066Z,98974.00
2023-01-09T00:19:18.869Z,98966.84
2023-01-09T00:21:51.656Z,98939.34
2023-01-09T00:24:24.408Z,98962.84
2023-01-09T00:26:57.168Z,98952.84
2023-01-09T00:29:31.704Z,98967.50
2023-01-09T00:32:09.917Z,98960.88
2023-01-09T00:34:43.929Z,98971.16
2023-01-09T00:37:16.923Z,98969.88
2023-01-09T00:39:49.733Z,98964.72
2023-01-09T00:42:25.940Z,98975.81
2023-01-09T00:45:03.297Z,98977.47
2023-01-09T00:47:39.569Z,98977.47
2023-01-09T00:50:17.063Z,98973.47
2023-01-09T00:52:51.507Z,98970.97
2023-01-09T00:55:24.911Z,98982.75
2023-01-09T00:57:57.872Z,98914.09
2023-01-09T01:00:32.027Z,98974.72
2023-01-09T01:03:05.308Z,98978.78
2023-01-09T01:05:55.704Z,98977.97
2023-01-09T01:08:28.538Z,98985.56
2023-01-09T01:11:05.309Z,98987.06
2023-01-09T01:13:39.059Z,98966.41
2023-01-09T01:16:14.276Z,98979.41
2023-01-09T01:18:47.156Z,98983.06
2023-01-09T01:21:21.334Z,98980.56
2023-01-09T01:23:54.089Z,98973.25
2023-01-09T01:26:26.818Z,98978.91
2023-01-09T01:29:00.036Z,98974.38
2023-01-09T01:31:34.113Z,98977.25
2023-01-09T01:34:07.113Z,98978.06
2023-01-09T01:36:40.141Z,98977.53
2023-01-09T01:39:13.060Z,98960.66
2023-01-09T01:41:45.894Z,98984.59
2023-01-09T01:44:56.491Z,98989.63
2023-01-09T01:47:37.673Z,98981.22
2023-01-09T01:50:22.682Z,98992.22
2023-01-09T01:53:01.749Z,98994.19
2023-01-09T01:55:37.047Z,99003.53
2023-01-09T01:58:13.740Z,99017.31
2023-01-09T02:00:48.563Z,99005.34
2023-01-09T02:03:26.622Z,99016.50
2023-01-09T02:05:59.448Z,99005.44
2023-01-09T02:08:32.740Z,99014.59
2023-01-09T02:11:06.761Z,99019.41
2023-01-09T02:13:40.433Z,99017.75
2023-01-09T02:16:26.554Z,99020.00
2023-01-09T02:19:14.192Z,99011.06
2023-01-09T02:22:05.882Z,99013.56
2023-01-09T02:25:06.085Z,99006.66
2023-01-09T02:28:16.744Z,99027.38
2023-01-09T02:30:56.463Z,99034.88
2023-01-09T02:33:47.780Z,99040.19
2023-01-09T02:36:31.278Z,99038.84
2023-01-09T02:39:21.683Z,99019.69
2023-01-09T02:41:58.826Z,99037.00
2023-01-09T02:44:33.837Z,99051.78
2023-01-09T02:47:27.822Z,99053.25
2023-01-09T02:50:03.831Z,99049.22
2023-01-09T02:52:55.295Z,99045.19
2023-01-09T02:55:42.763Z,99024.25
2023-01-09T02:58:24.225Z,99040.16
2023-01-09T03:01:06.772Z,99037.28
2023-01-09T03:03:49.024Z,99033.19
2023-01-09T03:06:30.483Z,99042.06
2023-01-09T03:09:09.602Z,99026.63
2023-01-09T03:11:48.499Z,99052.72
2023-01-09T03:14:25.047Z,99020.09
2023-01-09T03:17:01.899Z,99037.47
2023-01-09T03:19:36.807Z,99051.50
2023-01-09T03:22:09.842Z,99053.41
2023-01-09T03:24:42.657Z,99052.59
2023-01-09T03:27:15.963Z,99066.53
2023-01-09T03:29:48.748Z,99001.78
2023-01-09T03:32:21.565Z,99036.72
2023-01-09T03:34:55.604Z,99067.34
2023-01-09T03:37:28.297Z,99067.91
2023-01-09T03:40:01.026Z,99095.53
2023-01-09T03:42:33.753Z,99101.69
2023-01-09T03:45:07.767Z,99102.78
2023-01-09T03:47:40.956Z,99101.13
2023-01-09T03:50:15.079Z,99110.75
2023-01-09T03:52:47.815Z,99117.03
2023-01-09T03:55:20.539Z,99119.69
2023-01-09T03:57:53.653Z,99118.19
2023-01-09T04:00:26.449Z,99114.84
2023-01-09T04:02:59.167Z,99122.97
2023-01-09T04:05:33.247Z,99120.00
2023-01-09T04:08:06.721Z,99124.31
2023-01-09T04:10:39.468Z,99117.94
2023-01-09T04:13:12.389Z,99119.91
2023-01-09T04:15:45.148Z,99109.88
2023-01-09T04:18:17.934Z,99113.13
2023-01-09T04:20:53.396Z,99113.56
2023-01-09T04:23:28.091Z,99117.91
2023-01-09T04:26:00.845Z,99112.31
2023-01-09T04:28:33.619Z,99124.47
2023-01-09T04:31:07.721Z,99102.16
2023-01-09T04:33:40.459Z,99110.53
2023-01-09T04:36:14.645Z,99114.97
2023-01-09T04:38:47.418Z,99118.91
2023-01-09T04:41:34.151Z,99092.19
2023-01-09T04:44:07.071Z,99128.72
2023-01-09T04:46:39.826Z,99118.41
2023-01-09T04:49:12.787Z,99134.19
2023-01-09T04:51:47.133Z,99134.31
2023-01-09T04:54:20.034Z,99138.09
2023-01-09T04:56:52.768Z,99141.03
2023-01-09T04:59:25.652Z,99155.53
2023-01-09T05:01:59.392Z,99151.22
2023-01-09T05:04:32.473Z,99158.06
2023-01-09T05:07:06.694Z,99163.13
2023-01-09T05:09:39.458Z,99152.38
2023-01-09T05:12:12.231Z,99153.59
2023-01-09T05:14:45.012Z,99166.59
2023-01-09T05:17:17.774Z,99167.69
2023-01-09T05:19:50.528Z,99171.16
2023-01-09T05:22:25.090Z,99165.63
2023-01-09T05:25:00.297Z,99173.13
2023-01-09T05:27:33.461Z,99174.94
2023-01-09T05:30:07.140Z,99165.31
2023-01-09T05:32:39.909Z,99180.81
2023-01-09T05:35:12.756Z,99191.56
2023-01-09T05:37:46.949Z,99187.91
2023-01-09T05:40:19.997Z,99184.97
2023-01-09T05:42:52.850Z,99189.88
2023-01-09T05:45:27.277Z,99187.06
2023-01-09T05:48:00.118Z,99186.22
2023-01-09T05:50:33.049Z,99185.78
2023-01-09T05:53:07.344Z,99163.34
2023-01-09T05:55:40.159Z,99182.59
2023-01-09T05:58:12.908Z,99174.06
2023-01-09T06:00:45.685Z,99180.63
2023-01-09T06:03:18.693Z,99178.66
2023-01-09T06:05:51.655Z,99175.03
2023-01-09T06:08:25.901Z,99175.75
2023-01-09T06:10:58.668Z,99172.81
2023-01-09T06:13:31.426Z,99158.44
2023-01-09T06:16:04.394Z,99135.88
2023-01-09T06:18:37.167Z,99165.84
2023-01-09T06:21:09.913Z,99171.81
2023-01-09T06:23:44.075Z,99163.56
2023-01-09T06:26:16.875Z,99162.50
2023-01-09T06:28:49.622Z,99171.13
2023-01-09T06:31:22.524Z,99182.72
2023-01-09T06:33:55.323Z,99172.81
2023-01-09T06:36:28.137Z,99174.47
2023-01-09T06:39:02.623Z,99186.75
2023-01-09T06:41:35.755Z,99181.44
2023-01-09T06:44:08.496Z,99183.84
2023-01-09T06:46:41.417Z,99195.41
2023-01-09T06:49:14.209Z,99187.03
2023-01-09T06:51:46.971Z,99178.09
2023-01-09T06:54:21.571Z,99186.91
2023-01-09T06:56:54.316Z,99171.41
2023-01-09T06:59:27.177Z,99184.53
2023-01-09T07:02:00.160Z,99179.34
2023-01-09T07:04:33.000Z,99181.47
2023-01-09T07:07:05.869Z,99172.38
2023-01-09T07:09:40.280Z,99180.09
2023-01-09T07:12:14.758Z,99180.94
2023-01-09T07:14:47.524Z,99144.56
2023-01-09T07:17:20.230Z,99181.19
2023-01-09T07:19:53.033Z,99177.03
2023-01-09T07:22:25.747Z,99185.50
2023-01-09T07:24:59.842Z,99179.81
2023-01-09T07:27:32.739Z,99190.69
2023-01-09T07:30:07.966Z,99191.53
2023-01-09T07:32:41.089Z,99191.94
2023-01-09T07:35:13.902Z,99187.03
2023-01-09T07:37:47.460Z,99184.25
2023-01-09T07:40:22.707Z,99187.19
2023-01-09T07:42:55.655Z,99180.06
2023-01-09T07:45:28.458Z,99176.28
2023-01-09T07:48:01.290Z,99194.84
2023-01-09T07:50:34.113Z,99180.63
2023-01-09T07:53:06.840Z,99172.00
2023-01-09T07:55:43.377Z,99177.13
2023-01-09T07:58:16.166Z,99189.94
2023-01-09T08:00:49.009Z,99177.41
2023-01-09T08:03:21.751Z,99189.22
2023-01-09T08:05:54.506Z,99198.84
2023-01-09T08:08:27.449Z,99204.69
2023-01-09T08:11:04.219Z,99191.72
2023-01-09T08:13:37.071Z,99168.31
2023-01-09T08:16:09.975Z,99194.38
2023-01-09T08:18:42.973Z,99188.41
2023-01-09T08:21:15.680Z,99209.72
2023-01-09T08:23:48.450Z,99200.78
2023-01-09T08:26:22.624Z,99156.31
2023-01-09T08:28:55.371Z,99193.66
2023-01-09T08:31:28.170Z,99179.72
2023-01-09T08:34:00.961Z,99183.47
2023-01-09T08:36:33.842Z,99185.81
2023-01-09T08:39:06.767Z,99198.13
2023-01-09T08:41:58.559Z,99197.28
2023-01-09T08:44:48.758Z,99200.63
2023-01-09T08:47:24.263Z,99200.63
2023-01-09T08:49:57.699Z,99191.72
2023-01-09T08:52:30.623Z,99204.66
2023-01-09T08:55:03.643Z,99208.72
2023-01-09T08:57:37.806Z,99215.53
2023-01-09T09:00:11.976Z,99200.34
2023-01-09T09:02:44.806Z,99216.50
2023-01-09T09:05:17.700Z,99232.41
2023-01-09T09:07:50.902Z,99217.31
2023-01-09T09:10:24.676Z,99227.63
2023-01-09T09:13:00.097Z,99218.47
2023-01-09T09:15:34.271Z,99231.00
2023-01-09T09:18:09.107Z,99228.25
2023-01-09T09:20:41.834Z,99233.28
2023-01-09T09:23:14.652Z,99237.75
2023-01-09T09:25:47.677Z,99215.84
2023-01-09T09:28:21.795Z,99234.25
2023-01-09T09:30:54.831Z,99246.53
2023-01-09T09:33:27.810Z,99232.16
2023-01-09T09:36:00.905Z,99234.53
2023-01-09T09:38:33.680Z,99229.63
2023-01-09T09:41:40.973Z,99225.19
2023-01-09T09:44:52.601Z,99230.59
2023-01-09T09:47:43.291Z,99238.81
2023-01-09T09:50:26.638Z,99242.00
2023-01-09T09:53:07.162Z,99256.94
2023-01-09T09:55:42.102Z,99239.41
2023-01-09T09:58:17.299Z,99265.34
2023-01-09T10:00:52.076Z,99255.59
2023-01-09T10:03:33.852Z,99271.63
2023-01-09T10:06:12.336Z,99277.94
2023-01-09T10:08:53.329Z,99262.88
2023-01-09T10:11:33.367Z,99280.13
2023-01-09T10:14:16.023Z,99273.69
2023-01-09T10:17:11.052Z,99267.25
2023-01-09T10:20:02.846Z,99266.13
2023-01-09T10:22:47.068Z,99277.84
2023-01-09T10:25:28.832Z,99270.19
2023-01-09T10:28:18.530Z,99277.69
2023-01-09T10:30:54.217Z,99267.13
2023-01-09T10:33:48.330Z,99261.22
2023-01-09T10:36:55.006Z,99292.06
2023-01-09T10:39:36.437Z,99285.09
2023-01-09T10:42:19.750Z,99278.94
2023-01-09T10:44:57.995Z,99286.19
2023-01-09T10:47:34.193Z,99255.00
2023-01-09T10:50:20.245Z,99297.28
2023-01-09T10:52:55.777Z,99291.69
2023-01-09T10:55:38.584Z,99315.31
2023-01-09T10:58:13.622Z,99295.34
2023-01-09T11:00:47.313Z,99296.03
2023-01-09T11:03:22.511Z,99277.50
2023-01-09T11:05:57.776Z,99300.34
2023-01-09T11:08:34.864Z,99287.75
2023-01-09T11:11:07.715Z,99306.81
2023-01-09T11:13:46.723Z,99308.78
2023-01-09T11:16:22.339Z,99310.72
2023-01-09T11:18:57.634Z,99313.38
2023-01-09T11:21:37.949Z,99317.72
2023-01-09T11:24:31.381Z,99320.81
2023-01-09T11:27:24.692Z,99319.69
2023-01-09T11:30:22.392Z,99313.44
2023-01-09T11:32:57.077Z,99311.31
2023-01-09T11:35:34.415Z,99337.28
2023-01-09T11:38:16.030Z,99331.09
2023-01-09T11:40:51.699Z,99332.75
2023-01-09T11:43:32.503Z,99338.81
2023-01-09T11:46:08.025Z,99339.66
2023-01-09T11:48:54.016Z,99339.25
2023-01-09T11:51:28.561Z,99343.69
2023-01-09T11:54:21.007Z,99320.25
2023-01-09T11:56:54.256Z,99340.75
2023-01-09T11:59:29.649Z,99342.72
2023-01-09T12:02:33.867Z,99343.09
2023-01-09T12:05:19.255Z,99350.09
2023-01-09T12:07:58.655Z,99349.22
2023-01-09T12:10:48.350Z,99361.53
2023-01-09T12:13:34.705Z,99367.13
2023-01-09T12:16:14.100Z,99375.25
2023-01-09T12:19:02.814Z,99374.41
2023-01-09T12:21:38.755Z,99377.78
2023-01-09T12:24:51.091Z,99377.22
2023-01-09T12:27:39.285Z,99377.63
2023-01-09T12:30:23.570Z,99377.78
2023-01-09T12:33:12.665Z,99385.38
2023-01-09T12:35:51.481Z,99379.81
2023-01-09T12:38:35.780Z,99388.47
2023-01-09T12:41:59.397Z,99405.63
2023-01-09T12:44:50.439Z,99384.88
2023-01-09T12:47:43.856Z,99365.53
2023-01-09T12:50:48.661Z,99403.25
2023-01-09T12:53:26.499Z,99407.19
2023-01-09T12:56:05.377Z,99402.31
2023-01-09T12:58:44.476Z,99389.84
2023-01-09T13:01:24.121Z,99397.41
2023-01-09T13:04:10.681Z,99408.34
2023-01-09T13:06:48.773Z,99405.28
2023-01-09T13:09:27.583Z,99386.84
2023-01-09T13:12:05.857Z,99418.41
2023-01-09T13:14:51.519Z,99422.16
2023-01-09T13:17:31.068Z,99434.91
2023-01-09T13:20:18.429Z,99439.13
2023-01-09T13:22:52.850Z,99445.97
2023-01-09T13:25:43.269Z,99428.53
2023-01-09T13:28:20.132Z,99455.50
2023-01-09T13:31:08.980Z,99458.72
2023-01-09T13:33:46.515Z,99465.44
2023-01-09T13:36:26.810Z,99475.78
2023-01-09T13:39:01.737Z,99468.25
2023-01-09T13:41:51.942Z,99474.25
2023-01-09T13:44:28.492Z,99478.84
2023-01-09T13:47:03.535Z,99483.19
2023-01-09T13:50:15.835Z,99478.41
2023-01-09T13:52:50.062Z,99487.53
2023-01-09T13:55:35.768Z,99492.53
2023-01-09T13:58:23.451Z,99493.66
2023-01-09T14:00:59.712Z,99455.94
2023-01-09T14:03:37.364Z,99471.31
2023-01-09T14:06:20.508Z,99489.19
2023-01-09T14:09:19.581Z,99519.53
2023-01-09T14:12:04.424Z,99509.88
2023-01-09T14:14:37.450Z,99530.84
2023-01-09T14:17:18.210Z,99537.00
2023-01-09T14:19:56.538Z,99526.38
2023-01-09T14:22:42.417Z,99538.41
2023-01-09T14:25:27.398Z,99543.44
2023-01-09T14:28:22.204Z,99555.44
2023-01-09T14:31:09.868Z,99562.41
2023-01-09T14:33:42.664Z,99569.56
2023-01-09T14:36:21.678Z,99586.47
2023-01-09T14:38:58.511Z,99587.06
2023-01-09T14:41:54.791Z,99586.31
2023-01-09T14:44:30.524Z,99597.69
2023-01-09T14:47:13.510Z,99603.84
2023-01-09T14:49:51.363Z,99609.28
2023-01-09T14:52:29.156Z,99615.28
2023-01-09T14:55:03.819Z,99625.06
2023-01-09T14:57:37.938Z,99618.34
2023-01-09T15:00:18.660Z,99621.41
2023-01-09T15:02:54.434Z,99633.25
2023-01-09T15:05:28.147Z,99648.78
2023-01-09T15:08:04.221Z,99643.47
2023-01-09T15:10:39.175Z,99645.38
2023-01-09T15:13:15.335Z,99673.91
2023-01-09T15:15:49.510Z,99676.00
2023-01-09T15:18:25.758Z,99681.75
2023-01-09T15:21:02.024Z,99688.34
2023-01-09T15:23:34.797Z,99667.19
2023-01-09T15:26:23.365Z,99694.03
2023-01-09T15:29:06.180Z,99700.31
2023-01-09T15:31:42.523Z,99708.28
2023-01-09T15:34:19.029Z,99699.91
2023-01-09T15:36:52.958Z,99710.53
2023-01-09T15:39:27.607Z,99718.06
2023-01-09T15:42:19.009Z,99710.53
2023-01-09T15:44:53.997Z,99696.44
2023-01-09T15:47:27.710Z,99725.03
2023-01-09T15:50:02.228Z,99739.28
2023-01-09T15:52:35.233Z,99745.94
2023-01-09T15:55:26.178Z,99739.78
2023-01-09T15:57:59.301Z,99703.34
2023-01-09T16:00:43.853Z,99755.53
2023-01-09T16:03:22.453Z,99752.44
2023-01-09T16:06:05.153Z,99765.44
2023-01-09T16:08:41.147Z,99783.06
2023-01-09T16:11:24.718Z,99758.91
2023-01-09T16:14:03.598Z,99788.63
2023-01-09T16:16:37.997Z,99797.31
2023-01-09T16:19:31.079Z,99790.13
2023-01-09T16:22:04.774Z,99817.81
2023-01-09T16:24:41.332Z,99820.75
2023-01-09T16:27:28.623Z,99801.50
2023-01-09T16:30:05.028Z,99826.44
2023-01-09T16:32:51.354Z,99816.25
2023-01-09T16:35:26.949Z,99834.31
2023-01-09T16:38:00.347Z,99802.06
2023-01-09T16:40:36.052Z,99822.81
2023-01-09T16:43:11.254Z,99833.34
2023-01-09T16:45:44.719Z,99844.94
2023-01-09T16:48:22.520Z,99832.56
2023-01-09T16:50:55.352Z,99835.56
2023-01-09T16:53:31.749Z,99849.88
2023-01-09T16:56:04.917Z,99847.09
2023-01-09T16:58:37.735Z,99813.44
2023-01-09T17:01:13.384Z,99855.03
2023-01-09T17:03:49.559Z,99859.66
2023-01-09T17:06:24.157Z,99864.47
2023-01-09T17:08:57.303Z,99870.25
2023-01-09T17:11:31.697Z,99851.59
2023-01-09T17:14:07.357Z,99872.66
2023-01-09T17:16:43.129Z,99875.94
2023-01-09T17:19:20.730Z,99880.66
2023-01-09T17:21:53.731Z,99879.94
2023-01-09T17:24:44.361Z,99894.16
2023-01-09T17:27:36.540Z,99901.53
2023-01-09T17:30:18.732Z,99899.03
2023-01-09T17:32:51.966Z,99916.34
2023-01-09T17:35:26.805Z,99919.00
2023-01-09T17:37:59.655Z,99920.69
2023-01-09T17:40:35.814Z,99929.34
2023-01-09T17:43:08.680Z,99928.66
2023-01-09T17:45:42.687Z,99944.34
2023-01-09T17:48:17.611Z,99951.56
2023-01-09T17:50:51.724Z,99952.06
2023-01-09T17:53:25.328Z,99947.75
2023-01-09T17:55:58.900Z,99949.91
2023-01-09T17:58:31.908Z,99965.34
2023-01-09T18:01:05.491Z,99967.16
2023-01-09T18:03:38.748Z,99967.38
2023-01-09T18:06:14.320Z,99970.88
2023-01-09T18:08:47.719Z,99981.16
2023-01-09T18:11:22.469Z,99987.91
2023-01-09T18:13:56.140Z,100000.69
2023-01-09T18:16:30.272Z,99983.94
2023-01-09T18:19:03.743Z,100007.44
2023-01-09T18:21:37.927Z,100012.16
2023-01-09T18:24:10.813Z,100009.25
2023-01-09T18:26:43.702Z,100003.66
2023-01-09T18:29:16.649Z,100015.97
2023-01-09T18:31:51.147Z,100023.78
2023-01-09T18:34:23.973Z,100025.34
2023-01-09T18:36:58.227Z,100030.91
2023-01-09T18:39:31.358Z,100038.59
2023-01-09T18:42:04.188Z,100042.44
2023-01-09T18:44:37.052Z,100053.16
2023-01-09T18:47:09.851Z,100046.28
2023-01-09T18:49:42.638Z,100057.25
2023-01-09T18:52:16.884Z,100060.25
2023-01-09T18:54:49.865Z,100068.19
2023-01-09T18:57:22.704Z,100066.38
2023-01-09T18:59:55.488Z,100072.31
2023-01-09T19:02:28.509Z,100072.53
2023-01-09T19:05:01.351Z,100077.50
2023-01-09T19:07:35.544Z,100074.84
2023-01-09T19:10:09.700Z,100088.69
2023-01-09T19:12:42.538Z,100088.47
2023-01-09T19:15:15.430Z,100089.19
2023-01-09T19:17:50.233Z,100096.91
2023-01-09T19:20:23.322Z,100105.63
2023-01-09T19:22:58.046Z,100113.66
2023-01-09T19:25:30.831Z,100115.47
2023-01-09T19:28:03.938Z,100111.75
2023-01-09T19:30:38.193Z,100122.44
2023-01-09T19:33:12.483Z,100121.53
2023-01-09T19:35:49.145Z,100130.75
2023-01-09T19:38:26.805Z,100124.00
2023-01-09T19:41:08.955Z,100132.22
2023-01-09T19:43:42.161Z,100134.97
2023-01-09T19:46:16.746Z,100147.16
2023-01-09T19:48:49.844Z,100150.44
2023-01-09T19:51:23.006Z,100167.19
2023-01-09T19:56:34.976Z,100165.91
2023-01-09T19:59:08.361Z,100170.13
2023-01-09T20:01:42.704Z,100179.78
2023-01-09T20:04:17.197Z,100186.88
2023-01-09T20:06:52.579Z,100189.41
2023-01-09T20:09:28.752Z,100185.84
2023-01-09T20:12:03.809Z,100094.81
2023-01-09T20:14:37.701Z,100198.16
2023-01-09T20:17:10.495Z,100188.22
2023-01-09T20:19:44.265Z,100215.75
2023-01-09T20:22:17.556Z,100213.69
2023-01-09T20:24:51.702Z,100218.94
2023-01-09T20:27:24.600Z,100221.66
2023-01-09T20:29:57.403Z,100227.81
2023-01-09T20:32:32.228Z,100247.75
2023-01-09T20:35:05.324Z,100245.72
2023-01-09T20:37:39.964Z,100253.69
2023-01-09T20:40:14.253Z,100208.81
2023-01-09T20:42:47.029Z,100257.78
2023-01-09T20:45:19.857Z,100264.66
2023-01-09T20:47:54.145Z,100264.75
2023-01-09T20:50:27.092Z,100285.00
2023-01-09T20:53:00.048Z,100277.19
2023-01-09T20:55:34.605Z,100290.31
2023-01-09T20:58:07.455Z,100294.78
2023-01-09T21:00:40.305Z,100292.97
2023-01-09T21:03:16.103Z,100297.31
2023-01-09T21:05:49.042Z,100302.63
2023-01-09T21:08:21.833Z,100304.94
2023-01-09T21:10:58.105Z,100310.56
2023-01-09T21:13:31.514Z,100282.63
2023-01-09T21:16:07.754Z,100313.69
2023-01-09T21:18:43.855Z,100319.50
2023-01-09T21:21:18.570Z,100325.16
2023-01-09T21:23:53.393Z,100316.91
2023-01-09T21:26:30.258Z,100329.84
2023-01-09T21:29:08.121Z,100346.38
2023-01-09T21:31:41.563Z,100338.75
2023-01-09T21:34:14.781Z,100335.41
2023-01-09T21:36:48.690Z,100354.03
2023-01-09T21:39:22.090Z,100358.94
2023-01-09T21:42:14.139Z,100366.97
2023-01-09T21:45:04.289Z,100365.75
2023-01-09T21:47:37.064Z,100377.81
2023-01-09T21:50:10.982Z,100374.53
2023-01-09T21:52:43.730Z,100345.84
2023-01-09T21:55:16.766Z,100393.09
2023-01-09T21:57:54.427Z,100388.44
2023-01-09T22:00:27.859Z,100407.19
2023-01-09T22:03:01.078Z,100400.09
2023-01-09T22:05:37.119Z,100411.66
2023-01-09T22:08:09.867Z,100412.16
2023-01-09T22:10:42.642Z,100416.59
2023-01-09T22:13:17.626Z,100424.97
2023-01-09T22:15:50.572Z,100434.66
2023-01-09T22:18:23.494Z,100402.22
2023-01-09T22:20:56.297Z,100451.78
2023-01-09T22:23:29.575Z,100459.84
2023-01-09T22:26:08.137Z,100451.06
2023-01-09T22:28:43.231Z,100450.31
2023-01-09T22:31:18.363Z,100452.03
2023-01-09T22:33:51.995Z,100468.78
2023-01-09T22:36:25.523Z,100462.41
2023-01-09T22:38:59.793Z,100487.97
2023-01-09T22:41:33.716Z,100503.88
2023-01-09T22:44:07.876Z,100509.69
2023-01-09T22:46:40.709Z,100508.00
2023-01-09T22:49:14.098Z,100514.88
2023-01-09T22:51:46.906Z,100517.75
2023-01-09T22:54:20.883Z,100532.38
2023-01-09T22:56:53.855Z,100530.47
2023-01-09T22:59:27.993Z,100539.38
2023-01-09T23:02:01.003Z,100527.72
2023-01-09T23:04:33.847Z,100536.91
2023-01-09T23:07:06.671Z,100546.03
2023-01-09T23:09:39.479Z,100536.47
2023-01-09T23:12:12.294Z,100525.97
2023-01-09T23:14:46.439Z,100544.53
2023-01-09T23:17:19.279Z,100540.38
2023-01-09T23:19:52.420Z,100565.94
2023-01-09T23:22:25.823Z,100591.72
2023-01-09T23:24:58.609Z,100591.72
2023-01-09T23:27:31.453Z,100597.00
2023-01-09T23:30:06.923Z,100608.97
2023-01-09T23:32:39.900Z,100621.31
2023-01-09T23:35:12.978Z,100623.09
2023-01-09T23:37:45.790Z,100626.66
2023-01-09T23:40:20.011Z,100644.28
2023-01-09T23:43:10.827Z,100636.75
2023-01-09T23:45:46.642Z,100613.06
2023-01-09T23:48:19.612Z,100665.66
2023-01-09T23:50:53.772Z,100649.09
2023-01-09T23:53:26.906Z,100662.03
2023-01-09T23:56:01.113Z,100668.41
2023-01-09T23:58:34.094Z,100650.09
